sensor_id;sensor_type;location;lat;lon;timestamp;P1;durP1;ratioP1;P2;durP2;ratioP2
80425;SDS011;69766;51.476;5.704;2023-08-06T00:00:17;8.63;;;4.70;;
80425;SDS011;69766;51.476;5.704;2023-08-06T00:02:42;11.65;;;4.78;;
80425;SDS011;69766;51.476;5.704;2023-08-06T00:05:08;11.70;;;5.07;;
80425;SDS011;69766;51.476;5.704;2023-08-06T00:07:34;8.05;;;4.90;;
80425;SDS011;69766;51.476;5.704;2023-08-06T00:09:59;9.60;;;4.47;;
80425;SDS011;69766;51.476;5.704;2023-08-06T00:12:25;7.50;;;4.65;;
80425;SDS011;69766;51.476;5.704;2023-08-06T00:14:51;9.07;;;4.72;;
80425;SDS011;69766;51.476;5.704;2023-08-06T00:17:17;10.77;;;5.05;;
80425;SDS011;69766;51.476;5.704;2023-08-06T00:19:43;7.20;;;4.45;;
80425;SDS011;69766;51.476;5.704;2023-08-06T00:22:09;7.32;;;4.38;;
80425;SDS011;69766;51.476;5.704;2023-08-06T00:24:35;9.50;;;4.80;;
80425;SDS011;69766;51.476;5.704;2023-08-06T00:27:01;7.43;;;4.32;;
80425;SDS011;69766;51.476;5.704;2023-08-06T00:29:27;8.43;;;4.43;;
80425;SDS011;69766;51.476;5.704;2023-08-06T00:31:53;6.68;;;4.18;;
80425;SDS011;69766;51.476;5.704;2023-08-06T00:34:19;7.97;;;4.50;;
80425;SDS011;69766;51.476;5.704;2023-08-06T00:36:44;6.38;;;3.72;;
80425;SDS011;69766;51.476;5.704;2023-08-06T00:39:10;7.57;;;4.90;;
80425;SDS011;69766;51.476;5.704;2023-08-06T00:41:36;8.35;;;4.75;;
80425;SDS011;69766;51.476;5.704;2023-08-06T00:44:02;8.07;;;4.70;;
80425;SDS011;69766;51.476;5.704;2023-08-06T00:46:27;6.38;;;4.30;;
80425;SDS011;69766;51.476;5.704;2023-08-06T00:48:53;7.57;;;4.40;;
80425;SDS011;69766;51.476;5.704;2023-08-06T00:51:20;9.10;;;4.93;;
80425;SDS011;69766;51.476;5.704;2023-08-06T00:53:47;9.10;;;5.40;;
80425;SDS011;69766;51.476;5.704;2023-08-06T00:56:14;10.00;;;5.60;;
80425;SDS011;69766;51.476;5.704;2023-08-06T00:58:40;9.95;;;4.85;;
80425;SDS011;69766;51.476;5.704;2023-08-06T01:01:06;12.48;;;5.32;;
80425;SDS011;69766;51.476;5.704;2023-08-06T01:03:31;9.45;;;5.03;;
80425;SDS011;69766;51.476;5.704;2023-08-06T01:05:57;8.45;;;5.53;;
80425;SDS011;69766;51.476;5.704;2023-08-06T01:11:17;9.27;;;4.95;;
80425;SDS011;69766;51.476;5.704;2023-08-06T01:13:59;10.63;;;4.50;;
80425;SDS011;69766;51.476;5.704;2023-08-06T01:16:43;7.70;;;5.38;;
80425;SDS011;69766;51.476;5.704;2023-08-06T01:19:16;8.73;;;4.90;;
80425;SDS011;69766;51.476;5.704;2023-08-06T01:21:45;8.52;;;4.85;;
80425;SDS011;69766;51.476;5.704;2023-08-06T01:24:10;9.73;;;4.93;;
80425;SDS011;69766;51.476;5.704;2023-08-06T01:26:38;9.10;;;5.22;;
80425;SDS011;69766;51.476;5.704;2023-08-06T01:29:23;10.73;;;5.70;;
80425;SDS011;69766;51.476;5.704;2023-08-06T01:31:55;9.52;;;5.50;;
80425;SDS011;69766;51.476;5.704;2023-08-06T01:34:27;10.20;;;5.40;;
80425;SDS011;69766;51.476;5.704;2023-08-06T01:36:56;9.02;;;5.30;;
80425;SDS011;69766;51.476;5.704;2023-08-06T01:39:23;7.55;;;5.10;;
80425;SDS011;69766;51.476;5.704;2023-08-06T01:41:48;10.02;;;5.38;;
80425;SDS011;69766;51.476;5.704;2023-08-06T01:44:14;10.00;;;5.18;;
80425;SDS011;69766;51.476;5.704;2023-08-06T01:46:40;9.88;;;5.57;;
80425;SDS011;69766;51.476;5.704;2023-08-06T01:49:06;8.10;;;5.25;;
80425;SDS011;69766;51.476;5.704;2023-08-06T01:51:32;7.85;;;5.53;;
80425;SDS011;69766;51.476;5.704;2023-08-06T01:53:58;9.10;;;5.53;;
80425;SDS011;69766;51.476;5.704;2023-08-06T01:56:23;8.50;;;5.20;;
80425;SDS011;69766;51.476;5.704;2023-08-06T01:58:49;8.70;;;6.07;;
80425;SDS011;69766;51.476;5.704;2023-08-06T02:01:15;11.63;;;5.18;;
80425;SDS011;69766;51.476;5.704;2023-08-06T02:03:40;10.52;;;6.20;;
80425;SDS011;69766;51.476;5.704;2023-08-06T02:06:06;12.23;;;6.68;;
80425;SDS011;69766;51.476;5.704;2023-08-06T02:08:32;10.80;;;6.28;;
80425;SDS011;69766;51.476;5.704;2023-08-06T02:11:00;9.25;;;5.95;;
80425;SDS011;69766;51.476;5.704;2023-08-06T02:13:27;11.23;;;6.20;;
80425;SDS011;69766;51.476;5.704;2023-08-06T02:15:53;9.43;;;5.68;;
80425;SDS011;69766;51.476;5.704;2023-08-06T02:18:19;11.90;;;6.63;;
80425;SDS011;69766;51.476;5.704;2023-08-06T02:20:54;11.13;;;6.20;;
80425;SDS011;69766;51.476;5.704;2023-08-06T02:23:23;10.95;;;6.00;;
80425;SDS011;69766;51.476;5.704;2023-08-06T02:26:02;11.13;;;6.05;;
80425;SDS011;69766;51.476;5.704;2023-08-06T02:28:29;9.97;;;5.70;;
80425;SDS011;69766;51.476;5.704;2023-08-06T02:30:56;9.07;;;5.72;;
80425;SDS011;69766;51.476;5.704;2023-08-06T02:33:21;10.80;;;5.78;;
80425;SDS011;69766;51.476;5.704;2023-08-06T02:35:47;10.88;;;5.68;;
80425;SDS011;69766;51.476;5.704;2023-08-06T02:38:13;9.80;;;5.57;;
80425;SDS011;69766;51.476;5.704;2023-08-06T02:40:45;8.75;;;6.22;;
80425;SDS011;69766;51.476;5.704;2023-08-06T02:43:12;9.68;;;5.80;;
80425;SDS011;69766;51.476;5.704;2023-08-06T02:45:37;10.82;;;6.15;;
80425;SDS011;69766;51.476;5.704;2023-08-06T02:48:03;10.63;;;6.22;;
80425;SDS011;69766;51.476;5.704;2023-08-06T02:50:29;11.18;;;6.10;;
80425;SDS011;69766;51.476;5.704;2023-08-06T02:52:55;13.13;;;6.32;;
80425;SDS011;69766;51.476;5.704;2023-08-06T02:55:20;11.85;;;5.90;;
80425;SDS011;69766;51.476;5.704;2023-08-06T02:57:46;10.35;;;5.68;;
80425;SDS011;69766;51.476;5.704;2023-08-06T03:00:12;10.20;;;5.53;;
80425;SDS011;69766;51.476;5.704;2023-08-06T03:02:37;10.30;;;5.05;;
80425;SDS011;69766;51.476;5.704;2023-08-06T03:05:03;10.60;;;5.30;;
80425;SDS011;69766;51.476;5.704;2023-08-06T03:07:31;12.27;;;4.97;;
80425;SDS011;69766;51.476;5.704;2023-08-06T03:09:58;7.57;;;4.68;;
80425;SDS011;69766;51.476;5.704;2023-08-06T03:12:26;11.15;;;5.95;;
80425;SDS011;69766;51.476;5.704;2023-08-06T03:14:51;14.45;;;5.55;;
80425;SDS011;69766;51.476;5.704;2023-08-06T03:17:17;8.25;;;4.60;;
80425;SDS011;69766;51.476;5.704;2023-08-06T03:19:42;9.90;;;5.32;;
80425;SDS011;69766;51.476;5.704;2023-08-06T03:22:08;8.98;;;5.22;;
80425;SDS011;69766;51.476;5.704;2023-08-06T03:24:34;8.38;;;5.88;;
80425;SDS011;69766;51.476;5.704;2023-08-06T03:26:59;12.93;;;5.63;;
80425;SDS011;69766;51.476;5.704;2023-08-06T03:29:25;9.48;;;5.05;;
80425;SDS011;69766;51.476;5.704;2023-08-06T03:31:51;9.15;;;5.30;;
80425;SDS011;69766;51.476;5.704;2023-08-06T03:34:17;10.55;;;4.82;;
80425;SDS011;69766;51.476;5.704;2023-08-06T03:36:43;9.02;;;4.55;;
80425;SDS011;69766;51.476;5.704;2023-08-06T03:39:08;9.40;;;5.60;;
80425;SDS011;69766;51.476;5.704;2023-08-06T03:41:34;7.63;;;4.45;;
80425;SDS011;69766;51.476;5.704;2023-08-06T03:44:00;7.60;;;4.47;;
80425;SDS011;69766;51.476;5.704;2023-08-06T03:46:27;12.07;;;5.13;;
80425;SDS011;69766;51.476;5.704;2023-08-06T03:48:53;9.10;;;4.80;;
80425;SDS011;69766;51.476;5.704;2023-08-06T03:51:19;8.80;;;4.55;;
80425;SDS011;69766;51.476;5.704;2023-08-06T03:53:44;7.03;;;4.40;;
80425;SDS011;69766;51.476;5.704;2023-08-06T03:56:10;10.25;;;5.13;;
80425;SDS011;69766;51.476;5.704;2023-08-06T03:58:36;12.73;;;5.10;;
80425;SDS011;69766;51.476;5.704;2023-08-06T04:01:02;7.22;;;5.05;;
80425;SDS011;69766;51.476;5.704;2023-08-06T04:03:29;9.30;;;4.90;;
80425;SDS011;69766;51.476;5.704;2023-08-06T04:05:54;9.18;;;4.88;;
80425;SDS011;69766;51.476;5.704;2023-08-06T04:08:20;8.55;;;4.82;;
80425;SDS011;69766;51.476;5.704;2023-08-06T04:10:49;9.07;;;4.72;;
80425;SDS011;69766;51.476;5.704;2023-08-06T04:13:16;8.35;;;4.78;;
80425;SDS011;69766;51.476;5.704;2023-08-06T04:15:41;11.90;;;5.28;;
80425;SDS011;69766;51.476;5.704;2023-08-06T04:18:07;8.60;;;4.68;;
80425;SDS011;69766;51.476;5.704;2023-08-06T04:20:33;9.57;;;4.88;;
80425;SDS011;69766;51.476;5.704;2023-08-06T04:22:58;10.93;;;4.72;;
80425;SDS011;69766;51.476;5.704;2023-08-06T04:25:24;10.07;;;5.22;;
80425;SDS011;69766;51.476;5.704;2023-08-06T04:27:50;10.45;;;5.03;;
80425;SDS011;69766;51.476;5.704;2023-08-06T04:33:27;10.48;;;5.60;;
80425;SDS011;69766;51.476;5.704;2023-08-06T04:35:53;9.68;;;4.65;;
80425;SDS011;69766;51.476;5.704;2023-08-06T04:38:20;9.93;;;5.28;;
80425;SDS011;69766;51.476;5.704;2023-08-06T04:40:48;9.40;;;4.78;;
80425;SDS011;69766;51.476;5.704;2023-08-06T04:43:13;11.20;;;5.13;;
80425;SDS011;69766;51.476;5.704;2023-08-06T04:45:45;10.65;;;6.20;;
80425;SDS011;69766;51.476;5.704;2023-08-06T04:50:46;10.77;;;4.88;;
80425;SDS011;69766;51.476;5.704;2023-08-06T04:53:12;9.80;;;5.75;;
80425;SDS011;69766;51.476;5.704;2023-08-06T04:55:38;9.65;;;5.18;;
80425;SDS011;69766;51.476;5.704;2023-08-06T04:58:05;8.70;;;4.55;;
80425;SDS011;69766;51.476;5.704;2023-08-06T05:00:31;11.13;;;5.35;;
80425;SDS011;69766;51.476;5.704;2023-08-06T05:02:56;7.57;;;4.93;;
80425;SDS011;69766;51.476;5.704;2023-08-06T05:05:24;10.73;;;4.90;;
80425;SDS011;69766;51.476;5.704;2023-08-06T05:07:50;10.90;;;4.93;;
80425;SDS011;69766;51.476;5.704;2023-08-06T05:10:16;8.85;;;5.05;;
80425;SDS011;69766;51.476;5.704;2023-08-06T05:12:41;8.57;;;4.63;;
80425;SDS011;69766;51.476;5.704;2023-08-06T05:15:07;11.57;;;4.50;;
80425;SDS011;69766;51.476;5.704;2023-08-06T05:17:33;10.35;;;5.53;;
80425;SDS011;69766;51.476;5.704;2023-08-06T05:19:59;12.90;;;4.90;;
80425;SDS011;69766;51.476;5.704;2023-08-06T05:22:25;10.98;;;6.70;;
80425;SDS011;69766;51.476;5.704;2023-08-06T05:24:51;8.95;;;4.72;;
80425;SDS011;69766;51.476;5.704;2023-08-06T05:27:16;11.15;;;6.30;;
80425;SDS011;69766;51.476;5.704;2023-08-06T05:29:45;9.88;;;5.45;;
80425;SDS011;69766;51.476;5.704;2023-08-06T05:32:10;11.27;;;6.55;;
80425;SDS011;69766;51.476;5.704;2023-08-06T05:34:36;10.38;;;5.72;;
80425;SDS011;69766;51.476;5.704;2023-08-06T05:37:02;9.68;;;6.43;;
80425;SDS011;69766;51.476;5.704;2023-08-06T05:39:28;13.10;;;6.25;;
80425;SDS011;69766;51.476;5.704;2023-08-06T05:41:54;10.57;;;6.70;;
80425;SDS011;69766;51.476;5.704;2023-08-06T05:44:20;11.68;;;6.38;;
80425;SDS011;69766;51.476;5.704;2023-08-06T05:46:46;9.73;;;6.25;;
80425;SDS011;69766;51.476;5.704;2023-08-06T05:49:12;12.73;;;6.40;;
80425;SDS011;69766;51.476;5.704;2023-08-06T05:51:39;11.85;;;7.13;;
80425;SDS011;69766;51.476;5.704;2023-08-06T05:54:04;10.63;;;6.95;;
80425;SDS011;69766;51.476;5.704;2023-08-06T05:56:30;13.68;;;7.65;;
80425;SDS011;69766;51.476;5.704;2023-08-06T05:58:56;14.27;;;6.60;;
80425;SDS011;69766;51.476;5.704;2023-08-06T06:01:21;12.30;;;6.78;;
80425;SDS011;69766;51.476;5.704;2023-08-06T06:03:48;13.40;;;7.43;;
80425;SDS011;69766;51.476;5.704;2023-08-06T06:06:13;10.20;;;6.30;;
80425;SDS011;69766;51.476;5.704;2023-08-06T06:08:39;10.38;;;6.80;;
80425;SDS011;69766;51.476;5.704;2023-08-06T06:11:05;12.80;;;6.68;;
80425;SDS011;69766;51.476;5.704;2023-08-06T06:13:30;11.57;;;6.53;;
80425;SDS011;69766;51.476;5.704;2023-08-06T06:15:56;10.05;;;6.38;;
80425;SDS011;69766;51.476;5.704;2023-08-06T06:18:22;12.02;;;6.88;;
80425;SDS011;69766;51.476;5.704;2023-08-06T06:20:48;10.48;;;5.93;;
80425;SDS011;69766;51.476;5.704;2023-08-06T06:23:13;9.55;;;6.05;;
80425;SDS011;69766;51.476;5.704;2023-08-06T06:25:43;11.43;;;6.30;;
80425;SDS011;69766;51.476;5.704;2023-08-06T06:28:11;10.82;;;5.43;;
80425;SDS011;69766;51.476;5.704;2023-08-06T06:30:37;9.52;;;6.03;;
80425;SDS011;69766;51.476;5.704;2023-08-06T06:33:03;11.38;;;6.55;;
80425;SDS011;69766;51.476;5.704;2023-08-06T06:35:28;10.13;;;5.95;;
80425;SDS011;69766;51.476;5.704;2023-08-06T06:37:54;13.50;;;7.30;;
80425;SDS011;69766;51.476;5.704;2023-08-06T06:40:20;9.43;;;7.05;;
80425;SDS011;69766;51.476;5.704;2023-08-06T06:42:46;12.68;;;7.45;;
80425;SDS011;69766;51.476;5.704;2023-08-06T06:45:12;9.55;;;6.68;;
80425;SDS011;69766;51.476;5.704;2023-08-06T06:47:37;10.85;;;7.63;;
80425;SDS011;69766;51.476;5.704;2023-08-06T06:50:03;10.23;;;7.20;;
80425;SDS011;69766;51.476;5.704;2023-08-06T06:52:29;12.20;;;6.75;;
80425;SDS011;69766;51.476;5.704;2023-08-06T06:54:55;11.68;;;7.00;;
80425;SDS011;69766;51.476;5.704;2023-08-06T06:57:20;8.43;;;5.57;;
80425;SDS011;69766;51.476;5.704;2023-08-06T06:59:46;10.50;;;6.00;;
80425;SDS011;69766;51.476;5.704;2023-08-06T07:02:12;7.95;;;5.40;;
80425;SDS011;69766;51.476;5.704;2023-08-06T07:04:37;9.75;;;4.68;;
80425;SDS011;69766;51.476;5.704;2023-08-06T07:07:03;7.25;;;4.97;;
80425;SDS011;69766;51.476;5.704;2023-08-06T07:09:29;8.68;;;4.85;;
80425;SDS011;69766;51.476;5.704;2023-08-06T07:11:54;8.73;;;5.20;;
80425;SDS011;69766;51.476;5.704;2023-08-06T07:14:20;10.00;;;5.43;;
80425;SDS011;69766;51.476;5.704;2023-08-06T07:16:46;8.18;;;5.22;;
80425;SDS011;69766;51.476;5.704;2023-08-06T07:19:11;10.05;;;5.85;;
80425;SDS011;69766;51.476;5.704;2023-08-06T07:21:37;9.52;;;5.47;;
80425;SDS011;69766;51.476;5.704;2023-08-06T07:24:03;10.13;;;6.07;;
80425;SDS011;69766;51.476;5.704;2023-08-06T07:26:29;12.02;;;5.85;;
80425;SDS011;69766;51.476;5.704;2023-08-06T07:28:54;10.10;;;6.40;;
80425;SDS011;69766;51.476;5.704;2023-08-06T07:31:20;8.20;;;4.95;;
80425;SDS011;69766;51.476;5.704;2023-08-06T07:33:46;9.77;;;4.70;;
80425;SDS011;69766;51.476;5.704;2023-08-06T07:36:12;8.38;;;4.20;;
80425;SDS011;69766;51.476;5.704;2023-08-06T07:38:38;6.60;;;3.30;;
80425;SDS011;69766;51.476;5.704;2023-08-06T07:41:04;8.57;;;2.80;;
80425;SDS011;69766;51.476;5.704;2023-08-06T07:43:30;7.07;;;3.55;;
80425;SDS011;69766;51.476;5.704;2023-08-06T07:45:59;9.52;;;3.60;;
80425;SDS011;69766;51.476;5.704;2023-08-06T07:48:26;10.77;;;4.77;;
80425;SDS011;69766;51.476;5.704;2023-08-06T07:50:52;7.25;;;4.18;;
80425;SDS011;69766;51.476;5.704;2023-08-06T07:53:21;3.70;;;2.20;;
80425;SDS011;69766;51.476;5.704;2023-08-06T07:55:51;5.10;;;2.08;;
80425;SDS011;69766;51.476;5.704;2023-08-06T07:58:18;4.35;;;2.35;;
80425;SDS011;69766;51.476;5.704;2023-08-06T08:00:44;3.78;;;2.25;;
80425;SDS011;69766;51.476;5.704;2023-08-06T08:03:11;3.40;;;1.65;;
80425;SDS011;69766;51.476;5.704;2023-08-06T08:05:38;2.40;;;1.30;;
80425;SDS011;69766;51.476;5.704;2023-08-06T08:08:07;1.58;;;1.17;;
80425;SDS011;69766;51.476;5.704;2023-08-06T08:10:33;1.20;;;0.90;;
80425;SDS011;69766;51.476;5.704;2023-08-06T08:13:00;1.30;;;0.85;;
80425;SDS011;69766;51.476;5.704;2023-08-06T08:15:28;1.27;;;0.82;;
80425;SDS011;69766;51.476;5.704;2023-08-06T08:17:54;1.02;;;0.77;;
80425;SDS011;69766;51.476;5.704;2023-08-06T08:20:20;1.38;;;0.95;;
80425;SDS011;69766;51.476;5.704;2023-08-06T08:22:47;2.03;;;1.20;;
80425;SDS011;69766;51.476;5.704;2023-08-06T08:25:13;2.33;;;1.45;;
80425;SDS011;69766;51.476;5.704;2023-08-06T08:27:39;2.78;;;1.52;;
80425;SDS011;69766;51.476;5.704;2023-08-06T08:30:05;5.30;;;2.25;;
80425;SDS011;69766;51.476;5.704;2023-08-06T08:32:31;4.53;;;2.60;;
80425;SDS011;69766;51.476;5.704;2023-08-06T08:34:56;5.65;;;3.13;;
80425;SDS011;69766;51.476;5.704;2023-08-06T08:37:23;6.40;;;3.13;;
80425;SDS011;69766;51.476;5.704;2023-08-06T08:39:48;6.00;;;3.28;;
80425;SDS011;69766;51.476;5.704;2023-08-06T08:42:15;6.70;;;3.40;;
80425;SDS011;69766;51.476;5.704;2023-08-06T08:44:41;7.88;;;4.05;;
80425;SDS011;69766;51.476;5.704;2023-08-06T08:47:07;6.88;;;3.70;;
80425;SDS011;69766;51.476;5.704;2023-08-06T08:49:35;8.95;;;4.13;;
80425;SDS011;69766;51.476;5.704;2023-08-06T08:52:02;7.78;;;3.92;;
80425;SDS011;69766;51.476;5.704;2023-08-06T08:54:31;7.35;;;4.55;;
80425;SDS011;69766;51.476;5.704;2023-08-06T08:56:58;8.10;;;4.15;;
80425;SDS011;69766;51.476;5.704;2023-08-06T08:59:24;8.70;;;4.00;;
80425;SDS011;69766;51.476;5.704;2023-08-06T09:01:51;7.15;;;3.50;;
80425;SDS011;69766;51.476;5.704;2023-08-06T09:04:18;7.85;;;3.90;;
80425;SDS011;69766;51.476;5.704;2023-08-06T09:06:46;8.02;;;3.75;;
80425;SDS011;69766;51.476;5.704;2023-08-06T09:09:20;5.90;;;3.47;;
80425;SDS011;69766;51.476;5.704;2023-08-06T09:11:51;9.20;;;3.72;;
80425;SDS011;69766;51.476;5.704;2023-08-06T09:14:17;6.60;;;3.25;;
80425;SDS011;69766;51.476;5.704;2023-08-06T09:16:43;7.82;;;3.22;;
80425;SDS011;69766;51.476;5.704;2023-08-06T09:21:58;7.15;;;3.70;;
80425;SDS011;69766;51.476;5.704;2023-08-06T09:24:24;5.40;;;3.10;;
80425;SDS011;69766;51.476;5.704;2023-08-06T09:26:51;7.03;;;3.72;;
80425;SDS011;69766;51.476;5.704;2023-08-06T09:29:16;5.80;;;3.15;;
80425;SDS011;69766;51.476;5.704;2023-08-06T09:31:43;7.57;;;3.13;;
80425;SDS011;69766;51.476;5.704;2023-08-06T09:34:10;9.52;;;2.90;;
80425;SDS011;69766;51.476;5.704;2023-08-06T09:39:16;8.55;;;2.90;;
80425;SDS011;69766;51.476;5.704;2023-08-06T09:41:43;7.30;;;2.78;;
80425;SDS011;69766;51.476;5.704;2023-08-06T09:44:20;8.95;;;3.13;;
80425;SDS011;69766;51.476;5.704;2023-08-06T09:46:50;8.70;;;2.67;;
80425;SDS011;69766;51.476;5.704;2023-08-06T09:49:47;11.73;;;2.97;;
80425;SDS011;69766;51.476;5.704;2023-08-06T09:52:13;7.20;;;2.58;;
80425;SDS011;69766;51.476;5.704;2023-08-06T09:54:38;8.20;;;3.20;;
80425;SDS011;69766;51.476;5.704;2023-08-06T09:57:05;7.43;;;2.95;;
80425;SDS011;69766;51.476;5.704;2023-08-06T09:59:32;9.60;;;2.92;;
80425;SDS011;69766;51.476;5.704;2023-08-06T10:01:59;6.82;;;2.97;;
80425;SDS011;69766;51.476;5.704;2023-08-06T10:04:25;8.52;;;3.33;;
80425;SDS011;69766;51.476;5.704;2023-08-06T10:06:51;8.10;;;3.20;;
80425;SDS011;69766;51.476;5.704;2023-08-06T10:09:18;7.28;;;3.13;;
80425;SDS011;69766;51.476;5.704;2023-08-06T10:11:47;6.53;;;3.28;;
80425;SDS011;69766;51.476;5.704;2023-08-06T10:14:28;10.50;;;4.05;;
80425;SDS011;69766;51.476;5.704;2023-08-06T10:16:57;6.57;;;2.80;;
80425;SDS011;69766;51.476;5.704;2023-08-06T10:19:24;10.18;;;3.13;;
80425;SDS011;69766;51.476;5.704;2023-08-06T10:27:34;7.65;;;3.25;;
80425;SDS011;69766;51.476;5.704;2023-08-06T10:33:06;6.25;;;2.90;;
80425;SDS011;69766;51.476;5.704;2023-08-06T10:35:40;9.45;;;3.38;;
80425;SDS011;69766;51.476;5.704;2023-08-06T10:38:11;10.55;;;3.67;;
80425;SDS011;69766;51.476;5.704;2023-08-06T10:43:07;7.13;;;3.00;;
80425;SDS011;69766;51.476;5.704;2023-08-06T10:45:35;9.93;;;3.72;;
80425;SDS011;69766;51.476;5.704;2023-08-06T10:48:02;10.30;;;3.83;;
80425;SDS011;69766;51.476;5.704;2023-08-06T10:50:30;8.32;;;3.70;;
80425;SDS011;69766;51.476;5.704;2023-08-06T10:52:57;9.00;;;3.05;;
80425;SDS011;69766;51.476;5.704;2023-08-06T10:55:23;7.75;;;3.22;;
80425;SDS011;69766;51.476;5.704;2023-08-06T10:57:54;8.93;;;3.30;;
80425;SDS011;69766;51.476;5.704;2023-08-06T11:00:21;10.90;;;2.90;;
80425;SDS011;69766;51.476;5.704;2023-08-06T11:02:48;9.23;;;3.42;;
80425;SDS011;69766;51.476;5.704;2023-08-06T11:05:14;7.55;;;3.30;;
80425;SDS011;69766;51.476;5.704;2023-08-06T11:07:41;10.40;;;3.05;;
80425;SDS011;69766;51.476;5.704;2023-08-06T11:10:08;7.78;;;2.83;;
80425;SDS011;69766;51.476;5.704;2023-08-06T11:12:38;7.80;;;3.38;;
80425;SDS011;69766;51.476;5.704;2023-08-06T11:15:04;7.93;;;3.50;;
80425;SDS011;69766;51.476;5.704;2023-08-06T11:17:31;8.10;;;3.05;;
80425;SDS011;69766;51.476;5.704;2023-08-06T11:20:04;10.55;;;3.65;;
80425;SDS011;69766;51.476;5.704;2023-08-06T11:22:30;8.60;;;4.13;;
80425;SDS011;69766;51.476;5.704;2023-08-06T11:24:57;9.57;;;3.70;;
80425;SDS011;69766;51.476;5.704;2023-08-06T11:27:23;7.78;;;3.45;;
80425;SDS011;69766;51.476;5.704;2023-08-06T11:29:51;12.57;;;4.15;;
80425;SDS011;69766;51.476;5.704;2023-08-06T11:32:17;7.50;;;3.08;;
80425;SDS011;69766;51.476;5.704;2023-08-06T11:34:43;9.68;;;3.60;;
80425;SDS011;69766;51.476;5.704;2023-08-06T11:37:09;5.75;;;2.60;;
80425;SDS011;69766;51.476;5.704;2023-08-06T11:39:36;8.18;;;3.05;;
80425;SDS011;69766;51.476;5.704;2023-08-06T11:42:03;11.00;;;3.20;;
80425;SDS011;69766;51.476;5.704;2023-08-06T11:44:33;6.22;;;2.92;;
80425;SDS011;69766;51.476;5.704;2023-08-06T11:47:01;8.02;;;4.25;;
80425;SDS011;69766;51.476;5.704;2023-08-06T11:49:38;9.10;;;3.00;;
80425;SDS011;69766;51.476;5.704;2023-08-06T11:52:19;9.93;;;3.60;;
80425;SDS011;69766;51.476;5.704;2023-08-06T11:54:51;7.05;;;2.92;;
80425;SDS011;69766;51.476;5.704;2023-08-06T11:57:36;11.00;;;3.55;;
80425;SDS011;69766;51.476;5.704;2023-08-06T12:00:05;9.82;;;3.53;;
80425;SDS011;69766;51.476;5.704;2023-08-06T12:02:35;5.95;;;2.70;;
80425;SDS011;69766;51.476;5.704;2023-08-06T12:05:13;10.13;;;3.60;;
80425;SDS011;69766;51.476;5.704;2023-08-06T12:07:47;8.15;;;3.60;;
80425;SDS011;69766;51.476;5.704;2023-08-06T12:10:14;9.75;;;3.55;;
80425;SDS011;69766;51.476;5.704;2023-08-06T12:12:41;8.43;;;3.67;;
80425;SDS011;69766;51.476;5.704;2023-08-06T12:15:07;6.22;;;2.55;;
80425;SDS011;69766;51.476;5.704;2023-08-06T12:17:34;10.43;;;3.70;;
80425;SDS011;69766;51.476;5.704;2023-08-06T12:20:00;10.18;;;3.80;;
80425;SDS011;69766;51.476;5.704;2023-08-06T12:22:26;7.97;;;3.58;;
80425;SDS011;69766;51.476;5.704;2023-08-06T12:25:13;9.32;;;3.78;;
80425;SDS011;69766;51.476;5.704;2023-08-06T12:27:42;6.80;;;2.90;;
80425;SDS011;69766;51.476;5.704;2023-08-06T12:30:09;7.10;;;3.47;;
80425;SDS011;69766;51.476;5.704;2023-08-06T12:32:35;11.23;;;3.65;;
80425;SDS011;69766;51.476;5.704;2023-08-06T12:35:02;8.93;;;3.08;;
80425;SDS011;69766;51.476;5.704;2023-08-06T12:37:28;7.00;;;3.13;;
80425;SDS011;69766;51.476;5.704;2023-08-06T12:39:54;8.43;;;3.38;;
80425;SDS011;69766;51.476;5.704;2023-08-06T12:42:19;8.85;;;3.55;;
80425;SDS011;69766;51.476;5.704;2023-08-06T12:44:45;9.10;;;3.90;;
80425;SDS011;69766;51.476;5.704;2023-08-06T12:47:15;8.20;;;2.83;;
80425;SDS011;69766;51.476;5.704;2023-08-06T12:49:41;7.50;;;3.50;;
80425;SDS011;69766;51.476;5.704;2023-08-06T12:52:07;9.57;;;3.08;;
80425;SDS011;69766;51.476;5.704;2023-08-06T12:54:34;9.02;;;3.45;;
80425;SDS011;69766;51.476;5.704;2023-08-06T12:57:02;6.50;;;3.33;;
80425;SDS011;69766;51.476;5.704;2023-08-06T12:59:27;6.90;;;2.67;;
80425;SDS011;69766;51.476;5.704;2023-08-06T13:01:53;12.95;;;3.55;;
80425;SDS011;69766;51.476;5.704;2023-08-06T13:04:19;7.47;;;3.08;;
80425;SDS011;69766;51.476;5.704;2023-08-06T13:06:45;8.73;;;3.22;;
80425;SDS011;69766;51.476;5.704;2023-08-06T13:09:11;6.97;;;2.90;;
80425;SDS011;69766;51.476;5.704;2023-08-06T13:11:38;7.57;;;3.45;;
80425;SDS011;69766;51.476;5.704;2023-08-06T13:14:06;7.65;;;3.20;;
80425;SDS011;69766;51.476;5.704;2023-08-06T13:16:36;6.63;;;1.90;;
80425;SDS011;69766;51.476;5.704;2023-08-06T13:19:06;10.13;;;2.65;;
80425;SDS011;69766;51.476;5.704;2023-08-06T13:21:33;8.32;;;2.15;;
80425;SDS011;69766;51.476;5.704;2023-08-06T13:24:03;8.57;;;2.17;;
80425;SDS011;69766;51.476;5.704;2023-08-06T13:26:29;7.13;;;2.58;;
80425;SDS011;69766;51.476;5.704;2023-08-06T13:28:56;8.85;;;2.63;;
80425;SDS011;69766;51.476;5.704;2023-08-06T13:31:23;12.38;;;3.17;;
80425;SDS011;69766;51.476;5.704;2023-08-06T13:33:48;11.98;;;2.65;;
80425;SDS011;69766;51.476;5.704;2023-08-06T13:36:15;9.68;;;3.17;;
80425;SDS011;69766;51.476;5.704;2023-08-06T13:38:41;9.48;;;2.65;;
80425;SDS011;69766;51.476;5.704;2023-08-06T13:41:07;10.18;;;3.60;;
80425;SDS011;69766;51.476;5.704;2023-08-06T13:43:32;9.38;;;2.50;;
80425;SDS011;69766;51.476;5.704;2023-08-06T13:45:58;7.50;;;2.55;;
80425;SDS011;69766;51.476;5.704;2023-08-06T13:48:24;5.07;;;3.08;;
80425;SDS011;69766;51.476;5.704;2023-08-06T13:50:50;5.80;;;2.80;;
80425;SDS011;69766;51.476;5.704;2023-08-06T13:53:15;11.38;;;3.33;;
80425;SDS011;69766;51.476;5.704;2023-08-06T13:55:41;10.65;;;3.53;;
80425;SDS011;69766;51.476;5.704;2023-08-06T13:58:07;8.15;;;3.42;;
80425;SDS011;69766;51.476;5.704;2023-08-06T14:00:33;9.68;;;3.67;;
80425;SDS011;69766;51.476;5.704;2023-08-06T14:03:00;8.63;;;2.85;;
80425;SDS011;69766;51.476;5.704;2023-08-06T14:05:26;8.50;;;3.05;;
80425;SDS011;69766;51.476;5.704;2023-08-06T14:07:52;6.60;;;2.78;;
80425;SDS011;69766;51.476;5.704;2023-08-06T14:10:17;6.65;;;2.20;;
80425;SDS011;69766;51.476;5.704;2023-08-06T14:12:43;3.85;;;1.70;;
80425;SDS011;69766;51.476;5.704;2023-08-06T14:15:10;4.95;;;2.22;;
80425;SDS011;69766;51.476;5.704;2023-08-06T14:17:36;6.05;;;1.55;;
80425;SDS011;69766;51.476;5.704;2023-08-06T14:20:03;7.10;;;1.70;;
80425;SDS011;69766;51.476;5.704;2023-08-06T14:22:30;7.53;;;2.78;;
80425;SDS011;69766;51.476;5.704;2023-08-06T14:24:56;9.68;;;1.73;;
80425;SDS011;69766;51.476;5.704;2023-08-06T14:27:25;8.70;;;2.35;;
80425;SDS011;69766;51.476;5.704;2023-08-06T14:29:51;10.75;;;2.40;;
80425;SDS011;69766;51.476;5.704;2023-08-06T14:32:16;7.57;;;1.80;;
80425;SDS011;69766;51.476;5.704;2023-08-06T14:34:46;8.30;;;2.35;;
80425;SDS011;69766;51.476;5.704;2023-08-06T14:37:12;9.32;;;2.13;;
80425;SDS011;69766;51.476;5.704;2023-08-06T14:39:37;8.07;;;2.88;;
80425;SDS011;69766;51.476;5.704;2023-08-06T14:42:04;10.02;;;2.33;;
80425;SDS011;69766;51.476;5.704;2023-08-06T14:44:30;8.32;;;3.05;;
80425;SDS011;69766;51.476;5.704;2023-08-06T14:46:55;4.95;;;2.22;;
80425;SDS011;69766;51.476;5.704;2023-08-06T14:49:21;6.25;;;2.20;;
80425;SDS011;69766;51.476;5.704;2023-08-06T14:51:48;6.25;;;2.20;;
80425;SDS011;69766;51.476;5.704;2023-08-06T14:54:13;7.00;;;2.17;;
80425;SDS011;69766;51.476;5.704;2023-08-06T14:56:39;5.53;;;2.20;;
80425;SDS011;69766;51.476;5.704;2023-08-06T14:59:04;6.00;;;1.65;;
80425;SDS011;69766;51.476;5.704;2023-08-06T15:01:30;6.07;;;1.35;;
80425;SDS011;69766;51.476;5.704;2023-08-06T15:03:56;4.50;;;1.50;;
80425;SDS011;69766;51.476;5.704;2023-08-06T15:06:21;3.55;;;1.50;;